Sweet Home, Texas
Current Conditions -  °F | °C
As of 2:35 AM on Saturday 29 Nov 2014 (Local Time) from KT20 Reporting Station
Clear Clear  
Wind Chill: 55°   Ceiling: Unl
Heat Index: 55°   Visibility: 10mi
Dew Point: 54°   Wind: 6mph
Humidity: 97%   Direction: 190°S
Pressure: 30.09"   Gusts: NA
Location:  29.35°N, 97.07°W
Report Text: KT20 290835Z AUTO 19005KT 10SM CLR 13/12 A3009 RMK AO2 T01270123
Loading
Personal Weather Stations






























Interactive Weather Map New forecast layout! Learn more

10-Day Weather Forecast

Advertisements
Track Severe Weather on mobile